Time;durP1;ratioP1;P1;durP2;ratioP2;P2;SDS_P1;SDS_P2;PMS_P1;PMS_P2;Temp;Humidity;BMP_temperature;BMP_pressure;BME280_temperature;BME280_humidity;BME280_pressure;Samples;Min_cycle;Max_cycle;Signal;HPM_P1;HPM_P2
2021/03/20 00:02:24;;;;;;;281.55;76.20;;;;;;;-0.84;74.06;100787.22;1783379;80;21127;-58
2021/03/20 00:04:57;;;;;;;260.13;65.12;;;;;;;-0.85;74.27;100790.67;1782849;80;21787;-59
2021/03/20 00:07:30;;;;;;;189.62;54.25;;;;;;;-0.83;74.40;100787.16;1783267;80;21293;-59
2021/03/20 00:10:06;;;;;;;;;;;;;;;-0.82;74.49;100791.42;1784162;80;21676;-58
2021/03/20 00:12:38;;;;;;;125.22;34.98;;;;;;;-0.81;74.53;100787.09;1778190;80;20250;-60
2021/03/20 00:15:14;;;;;;;100.35;32.73;;;;;;;-0.85;74.56;100788.95;1773413;81;21178;-58
2021/03/20 00:17:47;;;;;;;93.30;33.23;;;;;;;-0.86;74.49;100782.11;1774924;81;21245;-59
2021/03/20 00:20:28;;;;;;;129.80;38.17;;;;;;;-0.87;74.35;100787.31;1775454;81;21175;-59
2021/03/20 00:23:01;;;;;;;108.78;35.78;;;;;;;-0.90;74.17;100785.69;1793573;80;21159;-59
2021/03/20 00:25:34;;;;;;;115.73;35.77;;;;;;;-0.92;74.21;100783.62;1793211;80;21285;-60
2021/03/20 00:28:10;;;;;;;111.62;34.03;;;;;;;-0.91;74.29;100787.03;1794106;80;21825;-59
2021/03/20 00:30:43;;;;;;;109.90;34.80;;;;;;;-0.92;74.32;100786.19;1793452;80;21765;-59
2021/03/20 00:33:16;;;;;;;110.95;31.00;;;;;;;-0.93;74.25;100781.11;1793805;80;21317;-59
2021/03/20 00:35:49;;;;;;;111.90;30.43;;;;;;;-0.96;74.24;100779.48;1792820;80;21290;-60
2021/03/20 00:38:23;;;;;;;115.83;34.40;;;;;;;-0.97;74.27;100781.64;1793498;80;21270;-59
2021/03/20 00:40:56;;;;;;;112.65;38.38;;;;;;;-0.97;74.19;100788.06;1793146;80;21293;-60
2021/03/20 00:43:29;;;;;;;112.32;33.28;;;;;;;-0.99;74.10;100786.44;1793615;80;21241;-60
2021/03/20 00:46:06;;;;;;;101.05;31.17;;;;;;;-1.02;74.04;100785.24;1793315;80;21829;-59
2021/03/20 00:48:41;;;;;;;91.60;27.65;;;;;;;-1.05;73.99;100783.61;1793352;80;21166;-60
2021/03/20 00:51:15;;;;;;;87.20;28.90;;;;;;;-1.07;73.94;100781.98;1793333;80;21821;-59
2021/03/20 00:53:48;;;;;;;91.95;21.75;;;;;;;-1.08;74.00;100783.73;1793229;80;21208;-59
2021/03/20 00:56:21;;;;;;;94.07;28.23;;;;;;;-1.06;74.08;100783.23;1792866;80;21781;-59
2021/03/20 00:58:55;;;;;;;86.15;24.20;;;;;;;-1.07;74.12;100778.12;1793423;80;21714;-60
2021/03/20 01:01:28;;;;;;;85.00;23.10;;;;;;;-1.08;74.07;100779.88;1793689;80;21116;-60
2021/03/20 01:04:02;;;;;;;72.00;21.90;;;;;;;-1.09;73.99;100777.34;1792931;80;21864;-59
2021/03/20 01:06:35;;;;;;;84.00;22.58;;;;;;;-1.11;73.86;100778.69;1792636;80;21778;-60
2021/03/20 01:09:11;;;;;;;94.97;27.75;;;;;;;-1.15;73.71;100783.98;1790691;80;21301;-59
2021/03/20 01:11:44;;;;;;;89.75;30.72;;;;;;;-1.21;73.39;100789.30;1792856;80;21234;-59
2021/03/20 01:14:18;;;;;;;166.62;43.10;;;;;;;-1.27;73.32;100787.79;1793257;80;21278;-59
2021/03/20 01:16:51;;;;;;;166.57;48.50;;;;;;;-1.33;73.44;100781.55;1787315;80;21798;-59
2021/03/20 01:19:25;;;;;;;163.40;45.92;;;;;;;-1.32;73.70;100779.83;1779169;80;21277;-59
2021/03/20 01:21:58;;;;;;;;;;;;;;;-1.30;73.95;100785.75;1782426;80;21316;-59
2021/03/20 01:24:31;;;;;;;112.60;35.90;;;;;;;-1.32;73.80;100782.39;1779592;80;20159;-59
2021/03/20 01:27:04;;;;;;;106.83;33.67;;;;;;;-1.37;73.85;100785.11;1778427;80;21241;-59
2021/03/20 01:29:37;;;;;;;;;;;;;;;-1.37;73.99;100782.55;1782019;80;21285;-59
2021/03/20 01:32:10;;;;;;;107.35;32.45;;;;;;;-1.34;74.12;100784.18;1779781;80;20636;-59
2021/03/20 01:34:43;;;;;;;99.45;32.85;;;;;;;-1.34;74.29;100785.46;1779692;80;21173;-60
2021/03/20 01:37:16;;;;;;;104.92;30.75;;;;;;;-1.31;74.43;100777.67;1779010;80;21178;-59
2021/03/20 01:39:51;;;;;;;99.25;27.90;;;;;;;-1.29;74.40;100781.02;1777859;80;21312;-59
2021/03/20 01:42:25;;;;;;;92.10;26.90;;;;;;;-1.29;74.36;100782.30;1779452;80;21269;-59
2021/03/20 01:45:14;;;;;;;100.72;28.05;;;;;;;-1.29;74.25;100786.16;1778821;80;21210;-59
2021/03/20 01:48:09;;;;;;;98.92;27.48;;;;;;;-1.32;74.18;100780.67;1778746;80;21769;-59
2021/03/20 01:50:44;;;;;;;;;;;;;;;-1.33;74.16;100787.13;1764443;80;21289;-59
2021/03/20 01:53:47;;;;;;;94.37;25.08;;;;;;;-1.36;74.15;100785.05;1779157;80;20230;-59
2021/03/20 01:56:33;;;;;;;92.85;26.52;;;;;;;-1.40;73.99;100788.61;1777723;80;21269;-59
2021/03/20 01:59:06;;;;;;;101.72;24.82;;;;;;;-1.53;73.50;100795.00;1777451;80;21312;-59
2021/03/20 02:01:41;;;;;;;93.37;27.40;;;;;;;-1.62;73.58;100795.30;1778596;80;21178;-59
2021/03/20 02:04:15;;;;;;;93.15;27.05;;;;;;;-1.63;73.88;100802.61;1780152;80;21178;-59
2021/03/20 02:06:48;;;;;;;87.85;28.75;;;;;;;-1.63;73.88;100802.61;1778207;80;21320;-58
2021/03/20 02:09:21;;;;;;;127.38;32.75;;;;;;;-1.64;73.89;100794.50;1779515;80;21246;-59
2021/03/20 02:12:14;;;;;;;163.62;44.50;;;;;;;-1.62;74.16;100793.16;1778317;80;21506;-59
2021/03/20 02:15:14;;;;;;;145.05;38.88;;;;;;;-1.61;74.21;100799.55;1777713;80;21192;-59
2021/03/20 02:18:25;;;;;;;113.72;33.08;;;;;;;-1.58;74.35;100803.75;1778824;80;21198;-59
2021/03/20 02:21:21;;;;;;;108.72;30.60;;;;;;;-1.56;74.40;100804.55;1779094;80;21285;-59
2021/03/20 02:24:11;;;;;;;83.70;26.85;;;;;;;-1.56;74.48;100802.83;1779302;80;21348;-59
2021/03/20 02:27:07;;;;;;;91.45;23.20;;;;;;;-1.55;74.43;100807.05;1747003;80;21281;-59
2021/03/20 02:30:10;;;;;;;84.03;22.40;;;;;;;-1.55;74.46;100804.48;1735641;80;21178;-59
2021/03/20 02:33:03;;;;;;;79.15;22.50;;;;;;;-1.54;74.36;100807.90;1778978;80;21309;-58
2021/03/20 02:35:50;;;;;;;79.55;21.17;;;;;;;-1.56;74.12;100813.53;1777912;80;22129;-59
2021/03/20 02:38:45;;;;;;;78.72;21.20;;;;;;;-1.60;73.91;100811.95;1778295;80;21346;-59
2021/03/20 02:41:53;;;;;;;80.60;21.30;;;;;;;-1.62;73.78;100817.55;1778123;80;21289;-59
2021/03/20 02:44:47;;;;;;;76.10;22.32;;;;;;;-1.64;73.72;100815.04;1779068;80;21807;-59
2021/03/20 02:47:26;;;;;;;;;;;;;;;-1.67;73.50;100819.44;1742385;81;21271;-59
2021/03/20 02:50:09;;;;;;;86.22;22.82;;;;;;;-1.73;73.24;100820.89;1790297;80;20263;-59
2021/03/20 02:53:02;;;;;;;74.87;20.72;;;;;;;-1.84;73.07;100823.76;1806532;79;21315;-59
2021/03/20 02:55:41;;;;;;;109.72;26.35;;;;;;;-1.90;73.05;100825.23;1807759;79;21277;-60
2021/03/20 02:58:24;;;;;;;98.65;26.23;;;;;;;-1.93;73.14;100825.78;1789854;80;21277;-59
2021/03/20 03:01:07;;;;;;;87.15;26.82;;;;;;;-1.93;73.38;100822.75;1750819;80;21425;-59
2021/03/20 03:03:43;;;;;;;84.83;26.15;;;;;;;-1.91;73.53;100824.82;1779872;80;21780;-59
2021/03/20 03:06:36;;;;;;;78.00;23.22;;;;;;;-1.89;73.72;100826.08;1779359;80;21277;-59
2021/03/20 03:09:13;;;;;;;77.45;23.15;;;;;;;-1.86;73.83;100826.00;1779006;80;21320;-59
2021/03/20 03:12:07;;;;;;;61.13;18.77;;;;;;;-1.83;73.87;100827.17;1778313;80;21218;-59
2021/03/20 03:14:49;;;;;;;68.52;19.70;;;;;;;-1.82;73.70;100830.15;1779505;80;21235;-60
2021/03/20 03:17:23;;;;;;;59.85;16.73;;;;;;;-1.85;73.58;100833.64;1764958;80;21313;-59
2021/03/20 03:20:02;;;;;;;64.75;17.32;;;;;;;-1.84;73.60;100839.63;1778832;80;21253;-59
2021/03/20 03:22:58;;;;;;;77.75;18.15;;;;;;;-1.84;73.58;100837.88;1778771;80;21182;-60
2021/03/20 03:25:33;;;;;;;79.95;20.15;;;;;;;-1.83;73.37;100846.42;1779797;80;21186;-59
2021/03/20 03:28:07;;;;;;;78.12;22.98;;;;;;;-1.87;73.14;100843.55;1778174;80;21277;-60
2021/03/20 03:30:40;;;;;;;87.55;21.62;;;;;;;-1.91;73.04;100841.97;1778548;80;21853;-60
2021/03/20 03:33:22;;;;;;;64.10;18.15;;;;;;;-1.92;73.15;100840.27;1778122;80;21335;-59
2021/03/20 03:36:02;;;;;;;73.80;17.80;;;;;;;-1.91;73.20;100846.63;1779493;80;21146;-59
2021/03/20 03:38:59;;;;;;;62.35;19.77;;;;;;;-1.90;73.09;100846.20;1777194;80;21175;-60
2021/03/20 03:41:39;;;;;;;60.83;17.77;;;;;;;-1.89;72.99;100841.48;1780013;80;21751;-59
2021/03/20 03:44:12;;;;;;;75.67;18.90;;;;;;;-1.86;72.91;100847.34;1779527;80;21179;-60
2021/03/20 03:46:46;;;;;;;89.07;22.62;;;;;;;-1.80;72.80;100850.19;1779399;80;21316;-60
2021/03/20 03:49:22;;;;;;;76.70;18.37;;;;;;;-1.70;72.67;100851.61;1779019;80;21307;-59
2021/03/20 03:51:55;;;;;;;72.22;18.00;;;;;;;-1.57;72.39;100857.61;1778375;80;21249;-59
2021/03/20 03:54:29;;;;;;;65.17;16.93;;;;;;;-1.43;72.07;100855.91;1779442;80;21803;-59
2021/03/20 03:57:22;;;;;;;73.83;20.32;;;;;;;-1.25;71.85;100856.65;1778421;80;21673;-59
2021/03/20 04:00:09;;;;;;;80.55;26.73;;;;;;;-1.09;71.54;100858.28;1777923;80;21372;-59
2021/03/20 04:03:22;;;;;;;64.87;15.23;;;;;;;-0.87;71.15;100860.56;1778276;80;21286;-59
2021/03/20 04:06:09;;;;;;;73.22;22.30;;;;;;;-0.54;70.81;100867.17;1779440;80;22133;-59
2021/03/20 04:09:05;;;;;;;106.55;29.07;;;;;;;-0.12;69.96;100868.25;1778292;80;21174;-59
2021/03/20 04:12:04;;;;;;;136.32;43.40;;;;;;;0.25;69.18;100869.51;1777325;80;21845;-60
2021/03/20 04:14:59;;;;;;;138.62;44.08;;;;;;;0.68;68.43;100866.56;1777984;80;21189;-60
2021/03/20 04:17:54;;;;;;;102.87;38.55;;;;;;;1.11;67.66;100866.16;1777911;80;21301;-61
2021/03/20 04:20:43;;;;;;;127.58;42.33;;;;;;;1.49;67.02;100869.29;1778759;80;21288;-59
2021/03/20 04:23:21;;;;;;;135.48;42.27;;;;;;;1.85;66.05;100866.89;1778989;80;21174;-60
2021/03/20 04:26:18;;;;;;;113.88;38.48;;;;;;;2.16;65.27;100863.80;1779591;80;21352;-60
2021/03/20 04:29:28;;;;;;;99.03;34.88;;;;;;;2.45;64.62;100865.91;1778531;80;21285;-60
2021/03/20 04:32:26;;;;;;;74.87;26.25;;;;;;;2.82;63.83;100862.47;1755433;81;21183;-60
2021/03/20 04:35:06;;;;;;;122.62;33.50;;;;;;;3.29;62.65;100869.62;1716101;82;22078;-60
2021/03/20 04:37:45;;;;;;;287.72;73.02;;;;;;;3.71;61.61;100866.63;1763999;80;21202;-61
2021/03/20 04:40:46;;;;;;;197.93;61.23;;;;;;;4.09;60.73;100871.13;1806757;79;21285;-61
2021/03/20 04:43:22;;;;;;;144.02;41.88;;;;;;;4.31;59.87;100879.45;1768588;81;21265;-60
2021/03/20 04:46:23;;;;;;;120.97;37.50;;;;;;;4.67;59.01;100870.15;1768664;81;21178;-60
2021/03/20 04:49:34;;;;;;;102.55;35.78;;;;;;;5.11;58.13;100868.98;1767558;81;21301;-61
2021/03/20 04:52:28;;;;;;;91.10;29.07;;;;;;;5.59;57.06;100870.53;1768544;81;21132;-61
2021/03/20 04:55:02;;;;;;;62.73;20.62;;;;;;;6.06;56.25;100871.17;1778393;80;21333;-62
2021/03/20 04:57:45;;;;;;;39.15;14.75;;;;;;;6.21;55.41;100872.83;1775829;80;21240;-63
2021/03/20 05:00:47;;;;;;;34.55;13.78;;;;;;;6.24;54.90;100883.05;1807639;79;21284;-61
2021/03/20 05:03:37;;;;;;;42.40;15.55;;;;;;;6.22;54.48;100885.37;1807494;79;21817;-62
2021/03/20 05:06:13;;;;;;;47.95;17.17;;;;;;;6.34;54.10;100890.66;1790298;80;21278;-62
2021/03/20 05:09:06;;;;;;;54.98;19.20;;;;;;;6.52;54.22;100891.31;1777537;80;21836;-62
2021/03/20 05:11:55;;;;;;;51.48;21.95;;;;;;;6.75;53.92;100894.61;1778038;80;22101;-62
2021/03/20 05:14:38;;;;;;;78.05;33.55;;;;;;;6.97;53.30;100887.58;1779051;80;21194;-62
2021/03/20 05:17:15;;;;;;;73.90;32.93;;;;;;;7.12;52.64;100887.88;1779894;80;21309;-63
2021/03/20 05:19:48;;;;;;;77.95;29.82;;;;;;;7.38;52.29;100890.47;1778544;80;21828;-63
2021/03/20 05:22:28;;;;;;;72.58;30.88;;;;;;;7.90;51.42;100888.33;1780035;80;21257;-63
2021/03/20 05:25:02;;;;;;;57.43;25.40;;;;;;;8.34;50.58;100892.66;1778701;80;21324;-64
2021/03/20 05:27:35;;;;;;;58.83;21.37;;;;;;;8.71;49.82;100892.23;1778251;80;21631;-66
2021/03/20 05:30:10;;;;;;;53.60;19.93;;;;;;;9.09;48.97;100890.31;1778236;80;21324;-65
2021/03/20 05:32:43;;;;;;;54.35;18.67;;;;;;;9.56;48.16;100889.43;1778416;80;21312;-64
2021/03/20 05:35:26;;;;;;;44.33;17.73;;;;;;;10.08;47.10;100891.55;1778244;80;21831;-66
2021/03/20 05:37:58;;;;;;;42.62;17.62;;;;;;;10.50;45.96;100884.35;1779698;80;21789;-60
2021/03/20 05:40:33;;;;;;;36.37;15.70;;;;;;;10.77;44.93;100886.59;1778238;80;21178;-58
2021/03/20 05:43:37;;;;;;;45.63;15.68;;;;;;;11.03;44.22;100886.64;1779934;80;21784;-59
2021/03/20 05:46:39;;;;;;;;;;;;;;;11.37;43.55;100889.95;1781146;80;21809;-61
2021/03/20 05:49:40;;;;;;;52.93;22.82;;;;;;;11.86;42.34;100884.97;1778493;80;20224;-61
2021/03/20 05:52:26;;;;;;;48.08;20.82;;;;;;;12.31;41.27;100893.35;1777489;80;21268;-61
2021/03/20 05:55:23;;;;;;;44.88;18.90;;;;;;;12.84;40.43;100882.96;1707325;80;21312;-60
2021/03/20 05:58:16;;;;;;;53.52;19.05;;;;;;;13.41;39.49;100885.31;1779363;80;21808;-60
2021/03/20 06:01:00;;;;;;;41.40;17.37;;;;;;;13.88;38.39;100885.74;1778228;80;21863;-60
2021/03/20 06:04:11;;;;;;;44.73;18.57;;;;;;;14.17;37.62;100885.66;1778474;80;21263;-59
2021/03/20 06:07:08;;;;;;;52.40;21.15;;;;;;;14.42;37.04;100885.54;1779932;80;21415;-61
2021/03/20 06:09:49;;;;;;;41.68;17.55;;;;;;;14.58;36.34;100892.32;1778018;80;21140;-59
2021/03/20 06:12:33;;;;;;;40.35;16.50;;;;;;;14.54;36.10;100891.80;1774352;80;21196;-59
2021/03/20 06:15:19;;;;;;;44.98;17.05;;;;;;;14.66;35.72;100895.06;1807198;79;21204;-60
2021/03/20 06:18:36;;;;;;;43.30;18.25;;;;;;;14.74;35.52;100900.41;1805561;79;21338;-60
2021/03/20 06:21:38;;;;;;;51.45;19.65;;;;;;;14.63;35.27;100896.67;1788476;80;21827;-59
2021/03/20 06:24:41;;;;;;;60.58;21.93;;;;;;;14.35;35.41;100899.78;1777429;80;22122;-59
2021/03/20 06:27:18;;;;;;;43.02;21.00;;;;;;;14.32;35.55;100896.59;1771303;80;21298;-59
2021/03/20 06:29:59;;;;;;;39.40;18.10;;;;;;;14.43;35.58;100892.45;1775644;80;22095;-59
2021/03/20 06:32:45;;;;;;;46.00;18.02;;;;;;;14.70;35.28;100892.47;1738681;80;21284;-59
2021/03/20 06:35:29;;;;;;;39.95;17.35;;;;;;;14.87;34.52;100886.89;1776327;80;21289;-59
2021/03/20 06:38:02;;;;;;;47.15;19.02;;;;;;;14.78;34.48;100886.79;1777887;80;21253;-59
2021/03/20 06:41:19;;;;;;;47.90;19.92;;;;;;;14.53;34.75;100892.77;1778929;80;21292;-59
2021/03/20 06:44:02;;;;;;;46.95;20.85;;;;;;;14.02;35.04;100884.45;1777475;80;21582;-59
2021/03/20 06:46:36;;;;;;;42.70;19.73;;;;;;;13.42;36.08;100887.80;1777502;80;21276;-59
2021/03/20 06:49:33;;;;;;;54.65;20.10;;;;;;;13.26;36.56;100890.63;1779599;80;21309;-59
2021/03/20 06:52:08;;;;;;;58.28;24.95;;;;;;;13.20;37.02;100887.25;1778459;80;21127;-59
2021/03/20 06:54:43;;;;;;;56.88;26.45;;;;;;;13.23;37.23;100888.30;1775433;80;21300;-59
2021/03/20 06:57:16;;;;;;;58.03;22.10;;;;;;;13.21;37.26;100888.90;1772453;80;21210;-59
2021/03/20 06:59:52;;;;;;;45.12;18.40;;;;;;;13.09;37.33;100884.26;1778575;80;21787;-60
2021/03/20 07:02:54;;;;;;;51.10;17.60;;;;;;;12.88;37.71;100884.81;1774662;80;21297;-59
2021/03/20 07:05:37;;;;;;;50.83;16.80;;;;;;;12.64;37.91;100889.12;1774596;80;21327;-58
2021/03/20 07:08:22;;;;;;;;;;;;;;;12.51;38.51;100893.80;1784189;80;21556;-58
2021/03/20 07:10:56;;;;;;;46.70;16.15;;;;;;;12.45;38.58;100895.62;1783230;80;20269;-59
2021/03/20 07:13:44;;;;;;;56.80;17.92;;;;;;;12.56;38.30;100896.02;1793361;79;21217;-59
2021/03/20 07:16:19;;;;;;;48.17;17.23;;;;;;;12.74;38.11;100889.98;1794023;79;21187;-59
2021/03/20 07:19:13;;;;;;;47.98;16.73;;;;;;;13.05;38.03;100889.42;1794715;80;22119;-60
2021/03/20 07:22:00;;;;;;;44.15;14.98;;;;;;;13.38;37.39;100885.11;1793487;79;21186;-61
2021/03/20 07:24:44;;;;;;;44.20;14.33;;;;;;;13.65;36.54;100887.03;1791674;79;21167;-60
2021/03/20 07:27:23;;;;;;;46.90;16.42;;;;;;;14.03;36.13;100887.44;1793692;79;21244;-60
2021/03/20 07:30:00;;;;;;;45.65;14.03;;;;;;;14.52;35.52;100887.14;1793777;79;22061;-60
2021/03/20 07:32:39;;;;;;;40.08;14.43;;;;;;;14.95;34.81;100887.80;1794305;79;21297;-60
2021/03/20 07:35:24;;;;;;;40.75;14.43;;;;;;;15.29;34.14;100890.61;1794881;79;21491;-60
2021/03/20 07:37:57;;;;;;;31.57;12.13;;;;;;;15.66;33.59;100883.88;1794827;80;21222;-59
2021/03/20 07:40:33;;;;;;;36.13;12.05;;;;;;;16.08;33.39;100886.98;1717659;79;21630;-59
2021/03/20 07:43:22;;;;;;;41.33;11.03;;;;;;;16.38;32.60;100888.80;1793883;79;21206;-60
2021/03/20 07:46:13;;;;;;;35.15;10.55;;;;;;;16.53;31.97;100888.06;1793432;79;21249;-59
2021/03/20 07:48:47;;;;;;;37.95;11.22;;;;;;;16.73;31.32;100890.80;1794999;79;22105;-59
2021/03/20 07:51:20;;;;;;;38.30;11.45;;;;;;;16.74;30.90;100886.34;1741928;80;21434;-59
2021/03/20 07:53:53;;;;;;;40.45;10.85;;;;;;;16.73;31.50;100884.18;1793523;79;21249;-60
2021/03/20 07:56:36;;;;;;;;;;;;;;;16.81;30.93;100882.06;1796887;80;21430;-59
2021/03/20 07:59:30;;;;;;;36.93;10.55;;;;;;;16.79;30.61;100880.05;1764818;80;20299;-60
2021/03/20 08:02:04;;;;;;;46.02;9.55;;;;;;;16.82;30.79;100873.12;1794334;79;22179;-60
2021/03/20 08:05:15;;;;;;;38.63;10.20;;;;;;;16.99;30.05;100870.02;1794828;80;21171;-60
2021/03/20 08:07:50;;;;;;;33.42;10.15;;;;;;;17.09;30.00;100871.55;1793558;80;21202;-62
2021/03/20 08:10:34;;;;;;;48.20;10.72;;;;;;;17.36;29.64;100871.22;1794737;80;21732;-62
2021/03/20 08:13:21;;;;;;;43.92;16.57;;;;;;;17.52;29.71;100870.94;1793492;79;21210;-60
2021/03/20 08:15:58;;;;;;;37.98;11.05;;;;;;;17.49;29.51;100874.70;1756297;80;22107;-61
2021/03/20 08:18:42;;;;;;;33.28;9.60;;;;;;;17.29;29.34;100880.81;1794889;79;21184;-61
2021/03/20 08:21:29;;;;;;;38.73;12.63;;;;;;;17.40;29.32;100873.89;1795063;80;21869;-59
2021/03/20 08:24:37;;;;;;;35.17;10.60;;;;;;;17.83;29.13;100877.20;1794513;78;21995;-59
2021/03/20 08:27:30;;;;;;;40.20;14.60;;;;;;;18.21;28.27;100871.66;1794012;79;22107;-60
2021/03/20 08:30:23;;;;;;;39.38;12.18;;;;;;;18.58;27.91;100874.02;1793506;79;21179;-59
2021/03/20 08:33:37;;;;;;;32.08;9.50;;;;;;;18.90;28.18;100871.72;1793657;80;21241;-59
2021/03/20 08:36:25;;;;;;;34.80;11.12;;;;;;;19.24;27.53;100867.34;1793478;80;21977;-59
2021/03/20 08:39:24;;;;;;;38.85;9.30;;;;;;;19.08;27.12;100860.83;1794819;80;21301;-58
2021/03/20 08:42:33;;;;;;;54.73;21.68;;;;;;;18.41;27.32;100865.80;1794887;79;21316;-58
2021/03/20 08:45:41;;;;;;;34.75;13.45;;;;;;;17.10;28.68;100865.23;1793580;80;21194;-57
2021/03/20 08:48:42;;;;;;;29.12;11.50;;;;;;;15.97;29.95;100870.08;1765631;81;21192;-58
2021/03/20 08:51:58;;;;;;;32.45;11.28;;;;;;;15.07;30.64;100868.15;1786071;80;22161;-58
2021/03/20 08:55:13;;;;;;;37.38;11.35;;;;;;;14.67;31.47;100864.60;1773568;80;21312;-59
2021/03/20 08:58:14;;;;;;;35.65;10.35;;;;;;;14.53;31.87;100865.09;1773385;80;21296;-58
2021/03/20 09:01:09;;;;;;;34.03;8.78;;;;;;;14.76;31.73;100865.03;1765657;80;21379;-59
2021/03/20 09:03:44;;;;;;;;;;;;;;;14.96;31.46;100857.83;1776701;80;21324;-59
2021/03/20 09:06:30;;;;;;;37.28;9.13;;;;;;;14.93;31.16;100860.76;1775291;80;20788;-57
2021/03/20 09:09:08;;;;;;;30.52;9.10;;;;;;;14.77;31.60;100861.91;1801283;79;22059;-59
2021/03/20 09:12:10;;;;;;;25.92;7.70;;;;;;;14.68;31.98;100862.80;1780705;80;21547;-60
2021/03/20 09:14:46;;;;;;;29.35;7.70;;;;;;;14.64;31.85;100856.17;1801738;79;22041;-60
2021/03/20 09:17:34;;;;;;;37.08;8.95;;;;;;;14.58;31.40;100859.39;1785855;80;21332;-59
2021/03/20 09:20:31;;;;;;;37.50;8.88;;;;;;;14.69;31.63;100855.22;1800913;79;22189;-59
2021/03/20 09:23:05;;;;;;;32.58;8.70;;;;;;;14.91;31.88;100853.48;1767950;81;22159;-59
2021/03/20 09:25:43;;;;;;;33.58;9.33;;;;;;;15.26;32.15;100852.17;1783200;80;21349;-60
2021/03/20 09:28:30;;;;;;;33.48;8.20;;;;;;;15.57;31.23;100854.45;1777704;80;21281;-60
2021/03/20 09:31:00;;;;;;;33.80;8.38;;;;;;;15.69;31.55;100859.30;1774658;80;21300;-60
2021/03/20 09:33:39;;;;;;;25.68;7.22;;;;;;;15.92;31.14;100860.96;1777715;80;21609;-59
2021/03/20 09:36:36;;;;;;;29.75;6.72;;;;;;;16.26;30.73;100864.95;1778383;80;21178;-60
2021/03/20 09:39:12;;;;;;;22.30;6.78;;;;;;;16.24;30.03;100863.77;1778024;80;21468;-59
2021/03/20 09:41:46;;;;;;;32.25;7.00;;;;;;;15.72;30.22;100858.17;1778422;80;21968;-59
2021/03/20 09:44:23;;;;;;;20.02;5.87;;;;;;;14.90;30.91;100861.56;1777377;80;21666;-59
2021/03/20 09:46:59;;;;;;;20.30;6.95;;;;;;;14.22;31.53;100861.05;1778385;80;21170;-59
2021/03/20 09:49:38;;;;;;;34.48;6.22;;;;;;;13.81;32.26;100860.13;1777184;80;21320;-59
2021/03/20 09:52:11;;;;;;;32.90;7.67;;;;;;;13.37;32.60;100857.13;1778481;80;21174;-59
2021/03/20 09:54:47;;;;;;;29.15;6.75;;;;;;;12.79;32.76;100846.22;1721495;80;21455;-59
2021/03/20 09:57:27;;;;;;;24.12;5.87;;;;;;;12.26;34.02;100856.63;1777382;80;21990;-59
2021/03/20 10:00:00;;;;;;;27.62;6.28;;;;;;;11.80;34.20;100851.84;1776986;80;21266;-59
2021/03/20 10:02:49;;;;;;;17.27;5.10;;;;;;;11.31;34.81;100849.36;1778271;80;21547;-59
2021/03/20 10:05:29;;;;;;;22.02;5.92;;;;;;;11.00;34.81;100846.27;1776697;80;22015;-59
2021/03/20 10:08:20;;;;;;;22.98;5.72;;;;;;;10.75;35.10;100843.48;1778402;80;21174;-59
2021/03/20 10:10:57;;;;;;;23.90;6.15;;;;;;;10.60;35.56;100838.14;1777066;80;21370;-59
2021/03/20 10:13:40;;;;;;;17.75;5.67;;;;;;;10.41;35.88;100840.55;1778268;80;22117;-59
2021/03/20 10:16:22;;;;;;;27.32;5.87;;;;;;;10.33;36.47;100836.88;1772310;80;21324;-58
2021/03/20 10:19:11;;;;;;;25.97;6.35;;;;;;;10.40;36.35;100832.83;1777983;80;21308;-59
2021/03/20 10:21:46;;;;;;;22.67;5.65;;;;;;;10.47;36.50;100836.63;1778348;80;21209;-59
2021/03/20 10:24:27;;;;;;;20.82;5.80;;;;;;;10.49;36.87;100838.17;1741203;80;21316;-58
2021/03/20 10:27:05;;;;;;;14.70;4.97;;;;;;;10.51;36.94;100833.64;1776185;80;22099;-58
2021/03/20 10:29:38;;;;;;;21.35;5.70;;;;;;;10.58;36.83;100834.02;1775313;80;22104;-59
2021/03/20 10:32:23;;;;;;;17.10;5.05;;;;;;;10.71;36.95;100828.13;1776263;80;21280;-59
2021/03/20 10:34:58;;;;;;;28.80;9.65;;;;;;;10.83;36.76;100828.46;1775210;80;21331;-59
2021/03/20 10:37:33;;;;;;;24.45;6.03;;;;;;;10.86;36.54;100819.53;1776254;80;21969;-59
2021/03/20 10:40:10;;;;;;;14.65;5.08;;;;;;;10.92;36.63;100816.39;1745177;80;22126;-58
2021/03/20 10:42:47;;;;;;;21.68;6.17;;;;;;;11.02;37.06;100816.00;1776148;80;21293;-58
2021/03/20 10:45:36;;;;;;;18.87;7.03;;;;;;;11.15;37.02;100816.68;1775074;80;21204;-58
2021/03/20 10:48:22;;;;;;;21.33;5.58;;;;;;;11.19;36.53;100814.98;1774782;80;21193;-59
2021/03/20 10:51:02;;;;;;;18.60;5.00;;;;;;;11.05;36.59;100810.05;1774747;80;21256;-59
2021/03/20 10:53:44;;;;;;;16.77;4.92;;;;;;;10.93;36.96;100807.13;1776167;80;21278;-59
2021/03/20 10:56:38;;;;;;;28.05;5.25;;;;;;;10.79;35.51;100799.05;1764181;81;21304;-58
2021/03/20 10:59:28;;;;;;;16.03;5.77;;;;;;;10.60;35.84;100797.56;1762679;81;22039;-57
2021/03/20 11:02:25;;;;;;;14.50;4.35;;;;;;;10.45;36.02;100796.19;1776153;80;22090;-58
2021/03/20 11:05:30;;;;;;;14.28;4.22;;;;;;;10.26;36.04;100795.14;1754055;81;21320;-58
2021/03/20 11:08:21;;;;;;;14.68;3.55;;;;;;;10.07;35.48;100793.11;1776232;80;22123;-58
2021/03/20 11:11:15;;;;;;;14.53;4.15;;;;;;;9.89;34.50;100792.74;1763402;81;21186;-58
2021/03/20 11:13:50;;;;;;;9.70;4.40;;;;;;;9.72;35.19;100790.59;1776178;80;21290;-59
2021/03/20 11:16:26;;;;;;;13.10;4.33;;;;;;;9.54;36.09;100797.23;1763455;81;22138;-59
2021/03/20 11:19:10;;;;;;;23.60;5.15;;;;;;;9.49;36.86;100793.66;1762614;81;21848;-59
2021/03/20 11:21:45;;;;;;;14.05;4.35;;;;;;;9.58;37.17;100791.31;1773563;80;21274;-59
2021/03/20 11:24:36;;;;;;;19.55;4.15;;;;;;;9.61;36.84;100786.66;1765009;81;21293;-59
2021/03/20 11:27:37;;;;;;;16.25;4.25;;;;;;;9.50;37.54;100786.16;1761113;81;22105;-59
2021/03/20 11:30:20;;;;;;;18.32;5.30;;;;;;;9.53;37.48;100778.56;1741118;81;21312;-58
2021/03/20 11:32:53;;;;;;;17.80;4.92;;;;;;;9.64;37.04;100771.22;1762665;81;21171;-57
2021/03/20 11:35:32;;;;;;;16.50;4.40;;;;;;;9.73;36.73;100772.66;1741558;81;21203;-57
2021/03/20 11:38:05;;;;;;;19.48;5.35;;;;;;;9.81;36.66;100766.84;1762601;81;21225;-58
2021/03/20 11:40:41;;;;;;;14.33;4.65;;;;;;;9.88;36.34;100762.80;1762198;81;22112;-58
2021/03/20 11:43:27;;;;;;;16.90;4.55;;;;;;;9.93;36.42;100764.58;1762572;81;21198;-57
2021/03/20 11:46:19;;;;;;;14.07;5.15;;;;;;;9.93;36.10;100766.73;1761785;81;21249;-59
2021/03/20 11:49:02;;;;;;;16.50;5.65;;;;;;;9.88;35.72;100757.56;1712450;82;21186;-59
2021/03/20 11:51:41;;;;;;;14.50;5.65;;;;;;;9.65;35.51;100762.45;1763812;81;22116;-59
2021/03/20 11:54:36;;;;;;;15.72;5.10;;;;;;;9.48;36.32;100764.54;1776136;80;21270;-58
2021/03/20 11:57:31;;;;;;;21.97;5.60;;;;;;;9.44;36.45;100758.36;1687559;81;21176;-59
2021/03/20 12:00:34;;;;;;;15.55;5.70;;;;;;;9.38;36.91;100762.76;1776170;80;22106;-59
2021/03/20 12:03:24;;;;;;;19.55;5.95;;;;;;;9.16;37.62;100760.09;1757424;79;21301;-59
2021/03/20 12:06:24;;;;;;;18.45;5.37;;;;;;;9.05;37.92;100758.76;1774739;80;21983;-59
2021/03/20 12:09:04;;;;;;;8.63;4.08;;;;;;;9.00;37.65;100761.72;1764896;81;21289;-59
2021/03/20 12:11:52;;;;;;;19.07;4.40;;;;;;;8.93;37.87;100754.45;1772692;80;21446;-59
2021/03/20 12:14:38;;;;;;;24.37;6.42;;;;;;;8.77;38.02;100750.80;1763470;81;22106;-59
2021/03/20 12:17:27;;;;;;;25.65;13.05;;;;;;;8.69;38.48;100751.86;1761186;81;21702;-59
2021/03/20 12:20:08;;;;;;;30.48;14.33;;;;;;;8.67;39.19;100756.33;1762481;81;22065;-58
2021/03/20 12:22:48;;;;;;;32.78;14.73;;;;;;;8.60;39.32;100757.26;1760792;81;21313;-58
2021/03/20 12:25:38;;;;;;;25.23;13.75;;;;;;;8.57;39.05;100761.39;1762424;81;21178;-58
2021/03/20 12:28:37;;;;;;;22.70;10.88;;;;;;;8.55;39.29;100757.25;1750955;81;21345;-58
2021/03/20 12:31:23;;;;;;;17.60;4.53;;;;;;;8.47;39.59;100759.57;1762181;81;22057;-58
2021/03/20 12:34:10;;;;;;;13.20;3.85;;;;;;;8.42;39.73;100757.30;1760888;81;21455;-57